Irondale, Missouri
Current Conditions -  °F | °C
As of 2:55 AM on Saturday 29 Nov 2014 (Local Time) from KFAM Reporting Station
Clear Clear  
Wind Chill: 38°   Ceiling: Unl
Heat Index: 43°   Visibility: 10mi
Dew Point: 36°   Wind: 8mph
Humidity: 76%   Direction: 160°SSE
Pressure: 29.89"   Gusts: NA
Location:  37.83°N, 90.68°W
Report Text: KFAM 290855Z AUTO 16007KT 10SM CLR 06/02 A2989 RMK AO1 57014
Loading
Personal Weather Stations






























Interactive Weather Map New forecast layout! Learn more

10-Day Weather Forecast

Advertisements
Track Severe Weather on mobile